sensor_id;sensor_type;location;lat;lon;timestamp;P1;durP1;ratioP1;P2;durP2;ratioP2
17570;SDS011;8903;52.220;20.978;2023-03-01T00:02:11;85.47;;;44.83;;
17570;SDS011;8903;52.220;20.978;2023-03-01T00:04:38;83.20;;;45.70;;
17570;SDS011;8903;52.220;20.978;2023-03-01T00:07:05;81.23;;;45.80;;
17570;SDS011;8903;52.220;20.978;2023-03-01T00:09:33;95.23;;;47.97;;
17570;SDS011;8903;52.220;20.978;2023-03-01T00:12:01;79.50;;;44.93;;
17570;SDS011;8903;52.220;20.978;2023-03-01T00:14:28;102.50;;;47.67;;
17570;SDS011;8903;52.220;20.978;2023-03-01T00:16:55;87.00;;;46.50;;
17570;SDS011;8903;52.220;20.978;2023-03-01T00:19:22;84.37;;;47.27;;
17570;SDS011;8903;52.220;20.978;2023-03-01T00:21:49;94.07;;;47.20;;
17570;SDS011;8903;52.220;20.978;2023-03-01T00:24:16;92.03;;;50.83;;
17570;SDS011;8903;52.220;20.978;2023-03-01T00:26:43;94.23;;;47.80;;
17570;SDS011;8903;52.220;20.978;2023-03-01T00:29:13;96.53;;;48.63;;
17570;SDS011;8903;52.220;20.978;2023-03-01T00:31:40;93.77;;;51.30;;
17570;SDS011;8903;52.220;20.978;2023-03-01T00:34:07;93.83;;;50.07;;
17570;SDS011;8903;52.220;20.978;2023-03-01T00:36:36;91.00;;;47.90;;
17570;SDS011;8903;52.220;20.978;2023-03-01T00:39:04;102.63;;;49.03;;
17570;SDS011;8903;52.220;20.978;2023-03-01T00:41:32;102.10;;;49.33;;
17570;SDS011;8903;52.220;20.978;2023-03-01T00:44:01;91.37;;;49.70;;
17570;SDS011;8903;52.220;20.978;2023-03-01T00:46:29;91.70;;;47.27;;
17570;SDS011;8903;52.220;20.978;2023-03-01T00:48:57;102.77;;;48.57;;
17570;SDS011;8903;52.220;20.978;2023-03-01T00:51:27;97.40;;;47.73;;
17570;SDS011;8903;52.220;20.978;2023-03-01T00:53:56;84.13;;;46.33;;
17570;SDS011;8903;52.220;20.978;2023-03-01T00:56:24;99.30;;;47.30;;
17570;SDS011;8903;52.220;20.978;2023-03-01T00:58:51;86.33;;;48.40;;
17570;SDS011;8903;52.220;20.978;2023-03-01T01:01:18;86.93;;;44.40;;
17570;SDS011;8903;52.220;20.978;2023-03-01T01:03:50;87.77;;;47.40;;
17570;SDS011;8903;52.220;20.978;2023-03-01T01:06:19;85.90;;;43.07;;
17570;SDS011;8903;52.220;20.978;2023-03-01T01:08:47;87.50;;;44.10;;
17570;SDS011;8903;52.220;20.978;2023-03-01T01:11:15;76.93;;;42.20;;
17570;SDS011;8903;52.220;20.978;2023-03-01T01:13:43;79.27;;;41.57;;
17570;SDS011;8903;52.220;20.978;2023-03-01T01:16:11;79.20;;;40.27;;
17570;SDS011;8903;52.220;20.978;2023-03-01T01:18:38;82.40;;;43.77;;
17570;SDS011;8903;52.220;20.978;2023-03-01T01:21:09;81.90;;;41.53;;
17570;SDS011;8903;52.220;20.978;2023-03-01T01:23:38;77.13;;;42.47;;
17570;SDS011;8903;52.220;20.978;2023-03-01T01:26:06;84.30;;;43.17;;
17570;SDS011;8903;52.220;20.978;2023-03-01T01:28:34;73.03;;;39.53;;
17570;SDS011;8903;52.220;20.978;2023-03-01T01:31:01;77.53;;;42.10;;
17570;SDS011;8903;52.220;20.978;2023-03-01T01:33:28;67.70;;;37.63;;
17570;SDS011;8903;52.220;20.978;2023-03-01T01:35:55;77.83;;;40.83;;
17570;SDS011;8903;52.220;20.978;2023-03-01T01:38:23;82.00;;;42.13;;
17570;SDS011;8903;52.220;20.978;2023-03-01T01:40:51;82.47;;;39.03;;
17570;SDS011;8903;52.220;20.978;2023-03-01T01:43:19;74.40;;;40.27;;
17570;SDS011;8903;52.220;20.978;2023-03-01T01:45:48;73.73;;;39.37;;
17570;SDS011;8903;52.220;20.978;2023-03-01T01:48:17;70.97;;;39.50;;
17570;SDS011;8903;52.220;20.978;2023-03-01T01:50:49;72.83;;;40.67;;
17570;SDS011;8903;52.220;20.978;2023-03-01T01:53:21;76.13;;;39.63;;
17570;SDS011;8903;52.220;20.978;2023-03-01T01:55:51;77.53;;;39.67;;
17570;SDS011;8903;52.220;20.978;2023-03-01T01:58:22;69.30;;;38.13;;
17570;SDS011;8903;52.220;20.978;2023-03-01T02:00:52;86.37;;;41.50;;
17570;SDS011;8903;52.220;20.978;2023-03-01T02:03:22;64.50;;;36.80;;
17570;SDS011;8903;52.220;20.978;2023-03-01T02:05:56;81.53;;;39.53;;
17570;SDS011;8903;52.220;20.978;2023-03-01T02:08:28;74.20;;;39.90;;
17570;SDS011;8903;52.220;20.978;2023-03-01T02:10:58;67.53;;;36.60;;
17570;SDS011;8903;52.220;20.978;2023-03-01T02:13:29;67.93;;;38.37;;
17570;SDS011;8903;52.220;20.978;2023-03-01T02:15:57;68.57;;;36.53;;
17570;SDS011;8903;52.220;20.978;2023-03-01T02:18:25;80.83;;;41.10;;
17570;SDS011;8903;52.220;20.978;2023-03-01T02:20:59;65.80;;;36.00;;
17570;SDS011;8903;52.220;20.978;2023-03-01T02:23:36;75.57;;;38.93;;
17570;SDS011;8903;52.220;20.978;2023-03-01T02:26:06;67.90;;;38.50;;
17570;SDS011;8903;52.220;20.978;2023-03-01T02:28:40;78.17;;;40.43;;
17570;SDS011;8903;52.220;20.978;2023-03-01T02:31:10;75.60;;;38.67;;
17570;SDS011;8903;52.220;20.978;2023-03-01T02:33:59;74.60;;;38.43;;
17570;SDS011;8903;52.220;20.978;2023-03-01T02:36:31;72.57;;;41.60;;
17570;SDS011;8903;52.220;20.978;2023-03-01T02:39:03;74.43;;;38.27;;
17570;SDS011;8903;52.220;20.978;2023-03-01T02:41:33;76.87;;;40.90;;
17570;SDS011;8903;52.220;20.978;2023-03-01T02:44:04;81.10;;;43.67;;
17570;SDS011;8903;52.220;20.978;2023-03-01T02:46:31;87.90;;;42.00;;
17570;SDS011;8903;52.220;20.978;2023-03-01T02:48:59;73.97;;;41.70;;
17570;SDS011;8903;52.220;20.978;2023-03-01T02:51:42;72.40;;;42.80;;
17570;SDS011;8903;52.220;20.978;2023-03-01T02:54:16;67.37;;;40.63;;
17570;SDS011;8903;52.220;20.978;2023-03-01T02:56:51;77.93;;;42.07;;
17570;SDS011;8903;52.220;20.978;2023-03-01T02:59:22;75.57;;;43.50;;
17570;SDS011;8903;52.220;20.978;2023-03-01T03:01:52;75.93;;;39.20;;
17570;SDS011;8903;52.220;20.978;2023-03-01T03:04:20;77.07;;;41.10;;
17570;SDS011;8903;52.220;20.978;2023-03-01T03:06:49;78.60;;;39.77;;
17570;SDS011;8903;52.220;20.978;2023-03-01T03:09:17;82.23;;;42.70;;
17570;SDS011;8903;52.220;20.978;2023-03-01T03:11:45;78.13;;;42.77;;
17570;SDS011;8903;52.220;20.978;2023-03-01T03:14:13;85.77;;;42.90;;
17570;SDS011;8903;52.220;20.978;2023-03-01T03:16:46;81.57;;;42.20;;
17570;SDS011;8903;52.220;20.978;2023-03-01T03:19:15;80.47;;;42.00;;
17570;SDS011;8903;52.220;20.978;2023-03-01T03:21:43;81.73;;;41.30;;
17570;SDS011;8903;52.220;20.978;2023-03-01T03:24:10;75.27;;;42.23;;
17570;SDS011;8903;52.220;20.978;2023-03-01T03:26:37;86.93;;;44.27;;
17570;SDS011;8903;52.220;20.978;2023-03-01T03:29:04;78.47;;;40.80;;
17570;SDS011;8903;52.220;20.978;2023-03-01T03:31:31;75.93;;;41.37;;
17570;SDS011;8903;52.220;20.978;2023-03-01T03:33:59;85.40;;;45.27;;
17570;SDS011;8903;52.220;20.978;2023-03-01T03:36:26;80.80;;;43.93;;
17570;SDS011;8903;52.220;20.978;2023-03-01T03:38:53;74.47;;;42.30;;
17570;SDS011;8903;52.220;20.978;2023-03-01T03:41:20;76.93;;;42.67;;
17570;SDS011;8903;52.220;20.978;2023-03-01T03:43:47;78.07;;;41.40;;
17570;SDS011;8903;52.220;20.978;2023-03-01T03:46:14;74.50;;;39.80;;
17570;SDS011;8903;52.220;20.978;2023-03-01T03:48:43;79.43;;;43.10;;
17570;SDS011;8903;52.220;20.978;2023-03-01T03:51:12;76.53;;;41.83;;
17570;SDS011;8903;52.220;20.978;2023-03-01T03:53:41;78.87;;;43.00;;
17570;SDS011;8903;52.220;20.978;2023-03-01T03:56:09;79.67;;;38.77;;
17570;SDS011;8903;52.220;20.978;2023-03-01T03:58:36;73.90;;;38.27;;
17570;SDS011;8903;52.220;20.978;2023-03-01T04:01:04;87.73;;;42.90;;
17570;SDS011;8903;52.220;20.978;2023-03-01T04:03:31;78.40;;;40.00;;
17570;SDS011;8903;52.220;20.978;2023-03-01T04:06:00;81.53;;;42.57;;
17570;SDS011;8903;52.220;20.978;2023-03-01T04:08:29;75.13;;;41.93;;
17570;SDS011;8903;52.220;20.978;2023-03-01T04:10:57;84.27;;;42.67;;
17570;SDS011;8903;52.220;20.978;2023-03-01T04:13:46;78.97;;;40.20;;
17570;SDS011;8903;52.220;20.978;2023-03-01T04:16:14;80.07;;;39.17;;
17570;SDS011;8903;52.220;20.978;2023-03-01T04:18:41;68.70;;;39.40;;
17570;SDS011;8903;52.220;20.978;2023-03-01T04:21:08;65.67;;;39.60;;
17570;SDS011;8903;52.220;20.978;2023-03-01T04:23:37;74.37;;;41.70;;
17570;SDS011;8903;52.220;20.978;2023-03-01T04:26:06;71.00;;;40.10;;
17570;SDS011;8903;52.220;20.978;2023-03-01T04:28:34;69.73;;;39.33;;
17570;SDS011;8903;52.220;20.978;2023-03-01T04:31:03;81.27;;;42.93;;
17570;SDS011;8903;52.220;20.978;2023-03-01T04:33:38;76.10;;;41.40;;
17570;SDS011;8903;52.220;20.978;2023-03-01T04:36:07;73.40;;;40.10;;
17570;SDS011;8903;52.220;20.978;2023-03-01T04:38:35;78.23;;;41.53;;
17570;SDS011;8903;52.220;20.978;2023-03-01T04:41:05;67.60;;;38.57;;
17570;SDS011;8903;52.220;20.978;2023-03-01T04:43:33;83.47;;;41.53;;
17570;SDS011;8903;52.220;20.978;2023-03-01T04:46:01;78.97;;;39.80;;
17570;SDS011;8903;52.220;20.978;2023-03-01T04:48:29;82.83;;;43.00;;
17570;SDS011;8903;52.220;20.978;2023-03-01T04:50:57;85.50;;;41.27;;
17570;SDS011;8903;52.220;20.978;2023-03-01T04:53:25;79.10;;;41.27;;
17570;SDS011;8903;52.220;20.978;2023-03-01T04:55:53;79.90;;;42.70;;
17570;SDS011;8903;52.220;20.978;2023-03-01T04:58:22;67.13;;;40.30;;
17570;SDS011;8903;52.220;20.978;2023-03-01T05:00:50;74.20;;;41.20;;
17570;SDS011;8903;52.220;20.978;2023-03-01T05:03:17;95.60;;;46.60;;
17570;SDS011;8903;52.220;20.978;2023-03-01T05:05:45;76.83;;;39.50;;
17570;SDS011;8903;52.220;20.978;2023-03-01T05:08:13;82.10;;;42.90;;
17570;SDS011;8903;52.220;20.978;2023-03-01T05:10:44;85.30;;;43.30;;
17570;SDS011;8903;52.220;20.978;2023-03-01T05:13:15;78.63;;;43.10;;
17570;SDS011;8903;52.220;20.978;2023-03-01T05:15:48;82.83;;;43.20;;
17570;SDS011;8903;52.220;20.978;2023-03-01T05:18:19;75.43;;;41.63;;
17570;SDS011;8903;52.220;20.978;2023-03-01T05:20:46;88.23;;;43.30;;
17570;SDS011;8903;52.220;20.978;2023-03-01T05:23:13;90.63;;;44.53;;
17570;SDS011;8903;52.220;20.978;2023-03-01T05:25:41;82.10;;;42.30;;
17570;SDS011;8903;52.220;20.978;2023-03-01T05:28:09;77.90;;;39.90;;
17570;SDS011;8903;52.220;20.978;2023-03-01T05:30:38;81.77;;;40.80;;
17570;SDS011;8903;52.220;20.978;2023-03-01T05:33:07;86.57;;;43.10;;
17570;SDS011;8903;52.220;20.978;2023-03-01T05:35:38;81.93;;;41.10;;
17570;SDS011;8903;52.220;20.978;2023-03-01T05:38:07;68.73;;;39.70;;
17570;SDS011;8903;52.220;20.978;2023-03-01T05:40:38;85.50;;;40.73;;
17570;SDS011;8903;52.220;20.978;2023-03-01T05:43:05;74.53;;;38.87;;
17570;SDS011;8903;52.220;20.978;2023-03-01T05:45:33;84.43;;;40.90;;
17570;SDS011;8903;52.220;20.978;2023-03-01T05:48:03;80.07;;;41.70;;
17570;SDS011;8903;52.220;20.978;2023-03-01T05:50:33;74.73;;;42.67;;
17570;SDS011;8903;52.220;20.978;2023-03-01T05:53:02;71.33;;;38.97;;
17570;SDS011;8903;52.220;20.978;2023-03-01T05:55:30;87.87;;;44.20;;
17570;SDS011;8903;52.220;20.978;2023-03-01T05:57:58;87.43;;;42.20;;
17570;SDS011;8903;52.220;20.978;2023-03-01T06:00:26;75.93;;;40.23;;
17570;SDS011;8903;52.220;20.978;2023-03-01T06:02:53;75.40;;;39.50;;
17570;SDS011;8903;52.220;20.978;2023-03-01T06:05:21;74.73;;;40.27;;
17570;SDS011;8903;52.220;20.978;2023-03-01T06:07:49;75.40;;;38.70;;
17570;SDS011;8903;52.220;20.978;2023-03-01T06:10:18;74.00;;;38.13;;
17570;SDS011;8903;52.220;20.978;2023-03-01T06:12:47;77.83;;;40.90;;
17570;SDS011;8903;52.220;20.978;2023-03-01T06:15:15;75.63;;;37.90;;
17570;SDS011;8903;52.220;20.978;2023-03-01T06:17:44;72.87;;;39.87;;
17570;SDS011;8903;52.220;20.978;2023-03-01T06:20:13;70.77;;;39.00;;
17570;SDS011;8903;52.220;20.978;2023-03-01T06:22:41;65.10;;;36.87;;
17570;SDS011;8903;52.220;20.978;2023-03-01T06:25:11;75.83;;;37.33;;
17570;SDS011;8903;52.220;20.978;2023-03-01T06:27:39;69.87;;;35.13;;
17570;SDS011;8903;52.220;20.978;2023-03-01T06:30:07;82.87;;;40.37;;
17570;SDS011;8903;52.220;20.978;2023-03-01T06:32:36;74.87;;;38.97;;
17570;SDS011;8903;52.220;20.978;2023-03-01T06:35:07;71.23;;;37.57;;
17570;SDS011;8903;52.220;20.978;2023-03-01T06:37:34;62.03;;;37.43;;
17570;SDS011;8903;52.220;20.978;2023-03-01T06:40:02;61.57;;;37.07;;
17570;SDS011;8903;52.220;20.978;2023-03-01T06:42:35;60.67;;;37.20;;
17570;SDS011;8903;52.220;20.978;2023-03-01T06:45:02;66.60;;;36.47;;
17570;SDS011;8903;52.220;20.978;2023-03-01T06:47:29;81.20;;;41.37;;
17570;SDS011;8903;52.220;20.978;2023-03-01T06:49:58;67.17;;;39.40;;
17570;SDS011;8903;52.220;20.978;2023-03-01T06:52:25;62.13;;;36.63;;
17570;SDS011;8903;52.220;20.978;2023-03-01T06:54:52;67.97;;;37.50;;
17570;SDS011;8903;52.220;20.978;2023-03-01T06:57:19;68.97;;;37.20;;
17570;SDS011;8903;52.220;20.978;2023-03-01T06:59:47;68.30;;;37.77;;
17570;SDS011;8903;52.220;20.978;2023-03-01T07:02:15;64.73;;;36.17;;
17570;SDS011;8903;52.220;20.978;2023-03-01T07:04:42;63.83;;;36.97;;
17570;SDS011;8903;52.220;20.978;2023-03-01T07:07:12;68.20;;;38.00;;
17570;SDS011;8903;52.220;20.978;2023-03-01T07:09:44;60.83;;;36.97;;
17570;SDS011;8903;52.220;20.978;2023-03-01T07:12:11;67.00;;;38.30;;
17570;SDS011;8903;52.220;20.978;2023-03-01T07:14:38;68.57;;;36.30;;
17570;SDS011;8903;52.220;20.978;2023-03-01T07:17:07;62.03;;;35.27;;
17570;SDS011;8903;52.220;20.978;2023-03-01T07:19:34;64.70;;;35.33;;
17570;SDS011;8903;52.220;20.978;2023-03-01T07:22:01;67.20;;;34.53;;
17570;SDS011;8903;52.220;20.978;2023-03-01T07:24:29;56.03;;;34.30;;
17570;SDS011;8903;52.220;20.978;2023-03-01T07:26:56;74.67;;;37.77;;
17570;SDS011;8903;52.220;20.978;2023-03-01T07:29:23;69.17;;;37.00;;
17570;SDS011;8903;52.220;20.978;2023-03-01T07:31:50;74.10;;;34.80;;
17570;SDS011;8903;52.220;20.978;2023-03-01T07:34:18;67.83;;;36.03;;
17570;SDS011;8903;52.220;20.978;2023-03-01T07:36:45;60.03;;;32.70;;
17570;SDS011;8903;52.220;20.978;2023-03-01T07:39:12;58.70;;;34.50;;
17570;SDS011;8903;52.220;20.978;2023-03-01T07:41:39;61.53;;;34.33;;
17570;SDS011;8903;52.220;20.978;2023-03-01T07:44:06;63.87;;;33.13;;
17570;SDS011;8903;52.220;20.978;2023-03-01T07:46:34;58.97;;;33.53;;
17570;SDS011;8903;52.220;20.978;2023-03-01T07:49:01;61.10;;;34.93;;
17570;SDS011;8903;52.220;20.978;2023-03-01T07:51:31;57.23;;;29.90;;
17570;SDS011;8903;52.220;20.978;2023-03-01T07:53:58;52.37;;;28.97;;
17570;SDS011;8903;52.220;20.978;2023-03-01T07:56:25;55.17;;;30.33;;
17570;SDS011;8903;52.220;20.978;2023-03-01T07:58:52;46.37;;;29.50;;
17570;SDS011;8903;52.220;20.978;2023-03-01T08:01:20;60.63;;;28.97;;
17570;SDS011;8903;52.220;20.978;2023-03-01T08:03:47;49.30;;;31.53;;
17570;SDS011;8903;52.220;20.978;2023-03-01T08:06:16;65.93;;;29.43;;
17570;SDS011;8903;52.220;20.978;2023-03-01T08:08:45;47.00;;;27.63;;
17570;SDS011;8903;52.220;20.978;2023-03-01T08:11:13;42.73;;;26.60;;
17570;SDS011;8903;52.220;20.978;2023-03-01T08:13:41;41.10;;;27.47;;
17570;SDS011;8903;52.220;20.978;2023-03-01T08:16:10;48.73;;;27.60;;
17570;SDS011;8903;52.220;20.978;2023-03-01T08:18:38;45.53;;;26.90;;
17570;SDS011;8903;52.220;20.978;2023-03-01T08:21:06;51.47;;;29.47;;
17570;SDS011;8903;52.220;20.978;2023-03-01T08:23:34;46.47;;;27.70;;
17570;SDS011;8903;52.220;20.978;2023-03-01T08:26:07;50.10;;;29.10;;
17570;SDS011;8903;52.220;20.978;2023-03-01T08:28:37;43.83;;;24.17;;
17570;SDS011;8903;52.220;20.978;2023-03-01T08:31:12;47.93;;;26.23;;
17570;SDS011;8903;52.220;20.978;2023-03-01T08:33:40;46.87;;;26.93;;
17570;SDS011;8903;52.220;20.978;2023-03-01T08:36:08;45.43;;;27.13;;
17570;SDS011;8903;52.220;20.978;2023-03-01T08:38:35;47.77;;;26.00;;
17570;SDS011;8903;52.220;20.978;2023-03-01T08:41:03;45.53;;;26.97;;
17570;SDS011;8903;52.220;20.978;2023-03-01T08:43:31;44.07;;;24.40;;
17570;SDS011;8903;52.220;20.978;2023-03-01T08:45:59;40.77;;;26.77;;
17570;SDS011;8903;52.220;20.978;2023-03-01T08:48:27;43.70;;;25.90;;
17570;SDS011;8903;52.220;20.978;2023-03-01T08:50:55;47.53;;;26.97;;
17570;SDS011;8903;52.220;20.978;2023-03-01T08:53:22;53.40;;;25.63;;
17570;SDS011;8903;52.220;20.978;2023-03-01T08:55:49;42.60;;;25.70;;
17570;SDS011;8903;52.220;20.978;2023-03-01T08:58:16;50.80;;;27.33;;
17570;SDS011;8903;52.220;20.978;2023-03-01T09:00:44;48.17;;;28.00;;
17570;SDS011;8903;52.220;20.978;2023-03-01T09:03:11;39.97;;;25.80;;
17570;SDS011;8903;52.220;20.978;2023-03-01T09:05:38;45.13;;;25.87;;
17570;SDS011;8903;52.220;20.978;2023-03-01T09:08:05;40.57;;;26.57;;
17570;SDS011;8903;52.220;20.978;2023-03-01T09:10:36;44.90;;;28.07;;
17570;SDS011;8903;52.220;20.978;2023-03-01T09:13:04;42.90;;;24.93;;
17570;SDS011;8903;52.220;20.978;2023-03-01T09:15:31;40.90;;;26.20;;
17570;SDS011;8903;52.220;20.978;2023-03-01T09:18:00;42.23;;;26.17;;
17570;SDS011;8903;52.220;20.978;2023-03-01T09:20:27;49.10;;;24.50;;
17570;SDS011;8903;52.220;20.978;2023-03-01T09:22:54;37.47;;;23.40;;
17570;SDS011;8903;52.220;20.978;2023-03-01T09:25:21;47.70;;;25.60;;
17570;SDS011;8903;52.220;20.978;2023-03-01T09:27:49;43.70;;;24.43;;
17570;SDS011;8903;52.220;20.978;2023-03-01T09:30:17;45.73;;;25.80;;
17570;SDS011;8903;52.220;20.978;2023-03-01T09:32:44;43.27;;;24.30;;
17570;SDS011;8903;52.220;20.978;2023-03-01T09:35:13;41.70;;;24.53;;
17570;SDS011;8903;52.220;20.978;2023-03-01T09:37:40;42.00;;;24.50;;
17570;SDS011;8903;52.220;20.978;2023-03-01T09:40:09;45.07;;;25.40;;
17570;SDS011;8903;52.220;20.978;2023-03-01T09:42:45;36.40;;;23.40;;
17570;SDS011;8903;52.220;20.978;2023-03-01T09:45:20;39.20;;;22.50;;
17570;SDS011;8903;52.220;20.978;2023-03-01T09:47:52;34.67;;;21.60;;
17570;SDS011;8903;52.220;20.978;2023-03-01T09:50:22;37.20;;;22.20;;
17570;SDS011;8903;52.220;20.978;2023-03-01T09:52:53;40.13;;;23.43;;
17570;SDS011;8903;52.220;20.978;2023-03-01T09:55:27;41.30;;;22.90;;
17570;SDS011;8903;52.220;20.978;2023-03-01T09:58:06;33.70;;;21.80;;
17570;SDS011;8903;52.220;20.978;2023-03-01T10:01:17;37.97;;;22.70;;
17570;SDS011;8903;52.220;20.978;2023-03-01T10:04:11;35.60;;;20.60;;
17570;SDS011;8903;52.220;20.978;2023-03-01T10:06:54;36.50;;;20.53;;
17570;SDS011;8903;52.220;20.978;2023-03-01T10:09:33;34.00;;;19.57;;
17570;SDS011;8903;52.220;20.978;2023-03-01T10:12:02;31.77;;;20.50;;
17570;SDS011;8903;52.220;20.978;2023-03-01T10:14:35;31.57;;;20.13;;
17570;SDS011;8903;52.220;20.978;2023-03-01T10:17:12;33.27;;;20.57;;
17570;SDS011;8903;52.220;20.978;2023-03-01T10:19:50;32.87;;;20.30;;
17570;SDS011;8903;52.220;20.978;2023-03-01T10:22:20;33.30;;;18.60;;
17570;SDS011;8903;52.220;20.978;2023-03-01T10:24:49;27.17;;;17.50;;
17570;SDS011;8903;52.220;20.978;2023-03-01T10:27:19;34.00;;;16.53;;
17570;SDS011;8903;52.220;20.978;2023-03-01T10:29:51;24.90;;;15.67;;
17570;SDS011;8903;52.220;20.978;2023-03-01T10:32:25;26.57;;;16.37;;
17570;SDS011;8903;52.220;20.978;2023-03-01T10:34:52;27.90;;;17.13;;
17570;SDS011;8903;52.220;20.978;2023-03-01T10:37:21;26.27;;;15.80;;
17570;SDS011;8903;52.220;20.978;2023-03-01T10:39:54;32.13;;;16.10;;
17570;SDS011;8903;52.220;20.978;2023-03-01T10:42:28;27.00;;;16.27;;
17570;SDS011;8903;52.220;20.978;2023-03-01T10:44:57;25.83;;;16.67;;
17570;SDS011;8903;52.220;20.978;2023-03-01T10:47:40;21.87;;;16.67;;
17570;SDS011;8903;52.220;20.978;2023-03-01T10:50:17;27.43;;;16.43;;
17570;SDS011;8903;52.220;20.978;2023-03-01T10:52:57;26.37;;;15.60;;
17570;SDS011;8903;52.220;20.978;2023-03-01T10:55:27;21.17;;;13.93;;
17570;SDS011;8903;52.220;20.978;2023-03-01T10:58:09;20.63;;;14.00;;
17570;SDS011;8903;52.220;20.978;2023-03-01T11:00:46;24.13;;;13.07;;
17570;SDS011;8903;52.220;20.978;2023-03-01T11:03:17;25.33;;;14.50;;
17570;SDS011;8903;52.220;20.978;2023-03-01T11:05:54;21.83;;;14.43;;
17570;SDS011;8903;52.220;20.978;2023-03-01T11:11:15;22.07;;;13.20;;
17570;SDS011;8903;52.220;20.978;2023-03-01T11:13:53;29.40;;;13.70;;
17570;SDS011;8903;52.220;20.978;2023-03-01T11:16:26;20.23;;;14.37;;
17570;SDS011;8903;52.220;20.978;2023-03-01T11:18:58;21.57;;;13.00;;
17570;SDS011;8903;52.220;20.978;2023-03-01T11:21:28;29.53;;;13.23;;
17570;SDS011;8903;52.220;20.978;2023-03-01T11:24:01;21.70;;;14.77;;
17570;SDS011;8903;52.220;20.978;2023-03-01T11:26:29;23.27;;;15.20;;
17570;SDS011;8903;52.220;20.978;2023-03-01T11:29:04;21.43;;;14.20;;
17570;SDS011;8903;52.220;20.978;2023-03-01T11:31:33;22.87;;;13.43;;
17570;SDS011;8903;52.220;20.978;2023-03-01T11:34:03;21.83;;;13.50;;
17570;SDS011;8903;52.220;20.978;2023-03-01T11:36:38;21.97;;;14.07;;
17570;SDS011;8903;52.220;20.978;2023-03-01T11:39:15;23.47;;;13.67;;
17570;SDS011;8903;52.220;20.978;2023-03-01T11:41:50;17.40;;;12.33;;
17570;SDS011;8903;52.220;20.978;2023-03-01T11:44:31;22.17;;;13.30;;
17570;SDS011;8903;52.220;20.978;2023-03-01T11:47:07;21.07;;;13.27;;
17570;SDS011;8903;52.220;20.978;2023-03-01T11:52:40;23.40;;;14.30;;
17570;SDS011;8903;52.220;20.978;2023-03-01T11:55:21;28.20;;;15.23;;
17570;SDS011;8903;52.220;20.978;2023-03-01T12:00:56;15.57;;;11.80;;
17570;SDS011;8903;52.220;20.978;2023-03-01T12:03:53;21.67;;;13.90;;
17570;SDS011;8903;52.220;20.978;2023-03-01T12:06:57;19.33;;;12.57;;
17570;SDS011;8903;52.220;20.978;2023-03-01T12:09:31;17.97;;;13.40;;
17570;SDS011;8903;52.220;20.978;2023-03-01T12:12:27;18.03;;;13.10;;
17570;SDS011;8903;52.220;20.978;2023-03-01T12:15:16;20.30;;;12.73;;
17570;SDS011;8903;52.220;20.978;2023-03-01T12:20:57;19.17;;;11.60;;
17570;SDS011;8903;52.220;20.978;2023-03-01T12:23:41;18.67;;;12.27;;
17570;SDS011;8903;52.220;20.978;2023-03-01T12:26:20;18.03;;;11.83;;
17570;SDS011;8903;52.220;20.978;2023-03-01T12:29:07;25.33;;;12.80;;
17570;SDS011;8903;52.220;20.978;2023-03-01T12:31:53;22.10;;;13.27;;
17570;SDS011;8903;52.220;20.978;2023-03-01T12:34:39;16.60;;;11.53;;
17570;SDS011;8903;52.220;20.978;2023-03-01T12:37:37;15.67;;;12.60;;
17570;SDS011;8903;52.220;20.978;2023-03-01T12:40:19;18.60;;;12.97;;
17570;SDS011;8903;52.220;20.978;2023-03-01T12:43:08;18.00;;;12.40;;
17570;SDS011;8903;52.220;20.978;2023-03-01T12:46:04;19.03;;;11.67;;
17570;SDS011;8903;52.220;20.978;2023-03-01T12:48:49;21.90;;;13.03;;
17570;SDS011;8903;52.220;20.978;2023-03-01T12:51:22;22.00;;;12.50;;
17570;SDS011;8903;52.220;20.978;2023-03-01T12:53:51;19.60;;;12.50;;
17570;SDS011;8903;52.220;20.978;2023-03-01T12:56:23;18.50;;;12.60;;
17570;SDS011;8903;52.220;20.978;2023-03-01T12:58:56;16.77;;;12.60;;
17570;SDS011;8903;52.220;20.978;2023-03-01T13:01:35;22.40;;;12.60;;
17570;SDS011;8903;52.220;20.978;2023-03-01T13:04:22;18.40;;;13.40;;
17570;SDS011;8903;52.220;20.978;2023-03-01T13:06:58;20.40;;;12.40;;
17570;SDS011;8903;52.220;20.978;2023-03-01T13:09:44;23.93;;;13.57;;
17570;SDS011;8903;52.220;20.978;2023-03-01T13:15:25;23.50;;;13.33;;
17570;SDS011;8903;52.220;20.978;2023-03-01T13:17:55;26.80;;;13.93;;
17570;SDS011;8903;52.220;20.978;2023-03-01T13:20:24;18.50;;;13.30;;
17570;SDS011;8903;52.220;20.978;2023-03-01T13:23:03;21.83;;;12.70;;
17570;SDS011;8903;52.220;20.978;2023-03-01T13:25:34;18.30;;;12.57;;
17570;SDS011;8903;52.220;20.978;2023-03-01T13:28:41;17.60;;;12.73;;
17570;SDS011;8903;52.220;20.978;2023-03-01T13:37:24;22.80;;;12.97;;
17570;SDS011;8903;52.220;20.978;2023-03-01T13:39:54;26.73;;;12.10;;
17570;SDS011;8903;52.220;20.978;2023-03-01T13:45:22;16.27;;;12.87;;
17570;SDS011;8903;52.220;20.978;2023-03-01T13:48:00;17.07;;;11.20;;
17570;SDS011;8903;52.220;20.978;2023-03-01T13:50:33;17.07;;;10.93;;
17570;SDS011;8903;52.220;20.978;2023-03-01T13:53:09;18.83;;;13.60;;
17570;SDS011;8903;52.220;20.978;2023-03-01T13:55:43;19.43;;;13.27;;
17570;SDS011;8903;52.220;20.978;2023-03-01T13:58:15;23.23;;;14.40;;
17570;SDS011;8903;52.220;20.978;2023-03-01T14:00:47;18.10;;;13.00;;
17570;SDS011;8903;52.220;20.978;2023-03-01T14:03:21;24.20;;;14.03;;
17570;SDS011;8903;52.220;20.978;2023-03-01T14:05:59;19.27;;;13.33;;
17570;SDS011;8903;52.220;20.978;2023-03-01T14:08:29;21.00;;;14.00;;
17570;SDS011;8903;52.220;20.978;2023-03-01T14:11:04;22.00;;;13.80;;
17570;SDS011;8903;52.220;20.978;2023-03-01T14:14:11;18.43;;;13.20;;
17570;SDS011;8903;52.220;20.978;2023-03-01T14:16:58;19.40;;;12.17;;
17570;SDS011;8903;52.220;20.978;2023-03-01T14:19:37;19.80;;;13.20;;
17570;SDS011;8903;52.220;20.978;2023-03-01T14:22:13;22.00;;;14.33;;
17570;SDS011;8903;52.220;20.978;2023-03-01T14:24:46;23.27;;;14.33;;
17570;SDS011;8903;52.220;20.978;2023-03-01T14:27:17;19.73;;;14.50;;
17570;SDS011;8903;52.220;20.978;2023-03-01T14:29:54;22.47;;;14.10;;
17570;SDS011;8903;52.220;20.978;2023-03-01T14:32:24;21.80;;;15.17;;
17570;SDS011;8903;52.220;20.978;2023-03-01T14:34:52;22.17;;;14.90;;
17570;SDS011;8903;52.220;20.978;2023-03-01T14:37:22;20.70;;;13.87;;
17570;SDS011;8903;52.220;20.978;2023-03-01T14:39:52;27.40;;;15.17;;
17570;SDS011;8903;52.220;20.978;2023-03-01T14:42:19;20.77;;;14.57;;
17570;SDS011;8903;52.220;20.978;2023-03-01T14:44:49;20.73;;;14.77;;
17570;SDS011;8903;52.220;20.978;2023-03-01T14:47:21;16.83;;;13.47;;
17570;SDS011;8903;52.220;20.978;2023-03-01T14:49:54;27.00;;;14.83;;
17570;SDS011;8903;52.220;20.978;2023-03-01T14:52:27;26.63;;;15.87;;
17570;SDS011;8903;52.220;20.978;2023-03-01T14:55:01;16.77;;;12.50;;
17570;SDS011;8903;52.220;20.978;2023-03-01T14:57:30;20.67;;;13.50;;
17570;SDS011;8903;52.220;20.978;2023-03-01T14:59:58;14.53;;;11.50;;
17570;SDS011;8903;52.220;20.978;2023-03-01T15:02:29;15.03;;;11.53;;
17570;SDS011;8903;52.220;20.978;2023-03-01T15:04:58;21.80;;;13.67;;
17570;SDS011;8903;52.220;20.978;2023-03-01T15:07:31;20.70;;;13.40;;
17570;SDS011;8903;52.220;20.978;2023-03-01T15:10:02;18.07;;;13.63;;